This is the latest recevied weather packets stored in our database for station/object OE-11121. If no packets are shown the sender has not sent any weather packets the latest 10 day(s).
| Time | Temp. | Humidity | Pressure | Rain* | Wind** | Luminosity | Snow |
|---|---|---|---|---|---|---|---|
| 1787958933 | 15° C | 82% | 1019.4 hPa | 3.81 mm | - | 0 W/m² | - |
| 1787958333 | 15.56° C | 75% | 1019.1 hPa | 11.94 mm | - | 0 W/m² | - |
| 1787957733 | 16.11° C | 76% | 1018.9 hPa | 14.73 mm | - | 0 W/m² | - |
| 1787956906 | 16.67° C | 79% | 1018.4 hPa | 14.73 mm | - | 0 W/m² | - |
| 1787956533 | 16.11° C | 89% | 1018 hPa | 14.73 mm | - | 0 W/m² | - |
| 1787955933 | 16.67° C | 90% | 1017.4 hPa | 14.99 mm | - | 0 W/m² | - |
| 1787955106 | 16.67° C | 88% | 1016.9 hPa | 14.73 mm | - | 0 W/m² | - |
| 1787954732 | 16.67° C | 89% | 1016.9 hPa | 11.68 mm | - | 0 W/m² | - |
| 1787954133 | 17.78° C | 83% | 1016.3 hPa | 3.3 mm | - | 0 W/m² | - |
| 1787953306 | 19.44° C | 86% | 1015.3 hPa | 0.51 mm | - | 0 W/m² | - |
| 1787952933 | 18.33° C | 81% | 1015.3 hPa | 0.51 mm | - | 0 W/m² | - |
| 1787952333 | 19.44° C | 88% | 1014.7 hPa | 0.25 mm | - | 0 W/m² | - |
| 1787951506 | 19.44° C | 89% | 1014.7 hPa | 0 mm | - | 0 W/m² | - |
| 1787951133 | 19.44° C | 88% | 1014.8 hPa | 0 mm | - | 0 W/m² | - |
| 1787950533 | 19.44° C | 89% | 1015 hPa | 0 mm | - | 0 W/m² | - |
| 1787949706 | 19.44° C | 90% | 1014.6 hPa | 0 mm | - | 0 W/m² | - |
| 1787949333 | 19.44° C | 90% | 1014.6 hPa | 0 mm | - | 0 W/m² | - |
| 1787948733 | 19.44° C | 89% | 1014.3 hPa | 0 mm | - | 0 W/m² | - |
| 1787947906 | 19.44° C | 89% | 1014.2 hPa | 0 mm | - | 0 W/m² | - |
| 1787947532 | 19.44° C | 89% | 1014.1 hPa | 0 mm | - | 0 W/m² | - |
| 1787946933 | 19.44° C | 89% | 1014.1 hPa | 0 mm | - | 0 W/m² | - |
| 1787946106 | 18.89° C | 88% | 1013.7 hPa | 0 mm | - | 0 W/m² | - |
| 1787945733 | 19.44° C | 88% | 1013.6 hPa | 0 mm | - | 0 W/m² | - |
| 1787945132 | 19.44° C | 88% | 1013.6 hPa | 0 mm | - | 0 W/m² | - |
| 1787944306 | 19.44° C | 84% | 1013.5 hPa | 0 mm | - | 0 W/m² | - |
* Rain latest hour (hover to see other rain measurements)
** Current wind speed in m/s (hover to see current wind gust speed)